Wainwright, Alaska
Current Conditions -  °F | °C
As of 11:53 AM on Thursday 18 Dec 2014 (Local Time) from PAWI Reporting Station
Light Snow Light Snow  
Wind Chill: -28°   Ceiling: 5000
Heat Index: -7°   Visibility: 4mi
Dew Point: -13°   Wind: 14mph
Humidity: 75%   Direction: 80°E
Pressure: 29.84"   Gusts: NA
Location:  70.64°N, 160.04°W
Report Text: PAWI 182053Z AUTO 08012KT 4SM -SN OVC050 M22/M25 A2984 RMK UPB39E52SNE39B52 SLP106 P0000 60000 T12171250 53005 TSNO VIA AUTODIAL
Loading
Personal Weather Stations






























Interactive Weather Map New forecast layout! Learn more

10-Day Weather Forecast

Advertisements
Track Severe Weather on mobile